Time;durP1;ratioP1;P1;durP2;ratioP2;P2;SDS_P1;SDS_P2;PMS_P1;PMS_P2;Temp;Humidity;BMP_temperature;BMP_pressure;BME280_temperature;BME280_humidity;BME280_pressure;Samples;Min_cycle;Max_cycle;Signal;HPM_P1;HPM_P2
2022/03/14 00:00:36;;;;;;;5.65;3.10;;;10.80;87.90;;;;;;5033893;28;20091;-85
2022/03/14 00:03:02;;;;;;;9.73;3.53;;;10.70;87.80;;;;;;5011082;28;20061;-85
2022/03/14 00:05:31;;;;;;;7.00;3.40;;;10.80;88.30;;;;;;5027671;28;20045;-85
2022/03/14 00:07:56;;;;;;;5.50;3.33;;;10.80;88.10;;;;;;5019197;28;20045;-84
2022/03/14 00:10:22;;;;;;;6.05;4.00;;;10.80;88.40;;;;;;5019391;28;20504;-85
2022/03/14 00:12:56;;;;;;;5.65;2.85;;;10.80;89.00;;;;;;5032680;28;20052;-84
2022/03/14 00:15:22;;;;;;;5.82;3.20;;;10.80;89.30;;;;;;5014583;28;20073;-84
2022/03/14 00:17:49;;;;;;;5.38;3.58;;;10.80;89.20;;;;;;5017611;28;20037;-85
2022/03/14 00:20:15;;;;;;;5.07;3.08;;;10.80;90.60;;;;;;5029564;28;20127;-85
2022/03/14 00:22:43;;;;;;;5.38;2.90;;;10.80;90.60;;;;;;5015550;28;20049;-84
2022/03/14 00:25:10;;;;;;;6.15;3.00;;;10.80;91.40;;;;;;5014192;28;20064;-84
2022/03/14 00:27:36;;;;;;;4.63;2.58;;;10.80;91.60;;;;;;5013610;28;20515;-85
2022/03/14 00:30:10;;;;;;;4.35;2.78;;;10.80;91.60;;;;;;5010971;28;20059;-84
2022/03/14 00:32:36;;;;;;;4.47;2.47;;;10.80;92.20;;;;;;5018253;28;20037;-85
2022/03/14 00:35:03;;;;;;;4.32;2.72;;;10.80;91.80;;;;;;5026181;28;20076;-85
2022/03/14 00:37:29;;;;;;;4.03;2.03;;;10.80;92.20;;;;;;5027995;28;20064;-85
2022/03/14 00:39:55;;;;;;;4.78;2.42;;;10.80;92.30;;;;;;5028429;28;20034;-85
2022/03/14 00:42:21;;;;;;;4.53;2.60;;;10.80;92.30;;;;;;5013168;28;20108;-85
2022/03/14 00:44:51;;;;;;;4.63;2.90;;;10.80;92.20;;;;;;5013936;28;20102;-84
2022/03/14 00:47:17;;;;;;;4.45;2.70;;;10.80;92.80;;;;;;5028969;28;20100;-85
2022/03/14 00:49:44;;;;;;;4.65;2.58;;;10.90;92.50;;;;;;5011603;28;20050;-85
2022/03/14 00:52:10;;;;;;;4.75;2.20;;;10.90;92.60;;;;;;5026906;28;20038;-85
2022/03/14 00:54:37;;;;;;;5.28;1.90;;;10.90;93.10;;;;;;5026173;28;20490;-86
2022/03/14 00:57:03;;;;;;;3.75;1.83;;;10.90;92.40;;;;;;5033365;28;20441;-85
2022/03/14 00:59:28;;;;;;;4.40;2.22;;;10.90;92.80;;;;;;5032057;28;20056;-85
2022/03/14 01:01:55;;;;;;;2.53;1.60;;;10.90;92.80;;;;;;5032466;28;20417;-85
2022/03/14 01:04:24;;;;;;;3.30;1.70;;;10.90;93.10;;;;;;5014602;28;20058;-85
2022/03/14 01:06:49;;;;;;;2.75;1.70;;;10.90;92.90;;;;;;5031988;28;20347;-85
2022/03/14 01:09:15;;;;;;;2.72;1.80;;;10.90;93.10;;;;;;5027496;28;20030;-85
2022/03/14 01:11:42;;;;;;;3.15;1.75;;;10.90;93.00;;;;;;5008259;28;20038;-86
2022/03/14 01:14:08;;;;;;;4.82;1.77;;;11.00;92.70;;;;;;5027349;28;20111;-85
2022/03/14 01:16:34;;;;;;;3.38;1.83;;;11.00;92.80;;;;;;5032091;28;20090;-85
2022/03/14 01:19:00;;;;;;;2.80;1.80;;;11.00;92.90;;;;;;5014854;28;20095;-84
2022/03/14 01:21:28;;;;;;;3.20;1.40;;;11.00;93.00;;;;;;5030425;28;20047;-84
2022/03/14 01:23:54;;;;;;;2.97;1.83;;;10.90;92.90;;;;;;5029271;28;20041;-85
2022/03/14 01:26:20;;;;;;;3.15;1.80;;;10.90;92.90;;;;;;5028741;28;20042;-85
2022/03/14 01:28:45;;;;;;;2.92;1.92;;;11.00;92.90;;;;;;5008093;28;20034;-85
2022/03/14 01:31:11;;;;;;;3.65;2.30;;;10.90;93.10;;;;;;5037929;28;20144;-85
2022/03/14 01:33:36;;;;;;;2.90;1.60;;;10.90;93.30;;;;;;5034077;28;20076;-84
2022/03/14 01:36:02;;;;;;;4.35;2.10;;;10.90;93.20;;;;;;5021101;28;20040;-84
2022/03/14 01:38:28;;;;;;;2.92;1.60;;;10.90;93.40;;;;;;5032841;28;20034;-85
2022/03/14 01:40:55;;;;;;;3.03;1.52;;;10.90;93.50;;;;;;5025839;28;20083;-86
2022/03/14 01:43:23;;;;;;;3.70;1.88;;;10.90;93.80;;;;;;5027433;28;21181;-85
2022/03/14 01:45:49;;;;;;;3.08;1.88;;;10.90;94.00;;;;;;5012755;28;20045;-85
2022/03/14 01:48:15;;;;;;;2.70;1.60;;;10.90;94.40;;;;;;5008770;28;20041;-85
2022/03/14 01:50:41;;;;;;;3.53;2.00;;;10.90;94.40;;;;;;5010678;28;20041;-85
2022/03/14 01:53:07;;;;;;;4.28;2.35;;;10.80;94.40;;;;;;5028268;28;20417;-85
2022/03/14 01:55:34;;;;;;;3.88;2.20;;;10.90;94.30;;;;;;5035663;28;20045;-85
2022/03/14 01:58:03;;;;;;;3.85;2.00;;;10.90;94.30;;;;;;5027623;28;20040;-85
2022/03/14 02:00:29;;;;;;;3.90;2.30;;;10.90;94.40;;;;;;5027110;28;20501;-85
2022/03/14 02:02:55;;;;;;;3.33;1.85;;;10.90;94.70;;;;;;5011902;28;20128;-84
2022/03/14 02:05:21;;;;;;;4.22;2.33;;;10.90;94.70;;;;;;5004356;28;20128;-85
2022/03/14 02:07:46;;;;;;;3.42;2.00;;;10.80;94.70;;;;;;5013675;28;20076;-85
2022/03/14 02:10:12;;;;;;;2.97;1.75;;;10.80;95.00;;;;;;5030436;28;20076;-84
2022/03/14 02:12:43;;;;;;;4.65;1.92;;;10.90;95.10;;;;;;5012127;28;20037;-85
2022/03/14 02:15:08;;;;;;;3.15;1.92;;;10.80;95.20;;;;;;5008516;28;20044;-85
2022/03/14 02:17:34;;;;;;;3.17;1.83;;;10.80;95.00;;;;;;5030001;28;20044;-84
2022/03/14 02:20:00;;;;;;;3.47;2.05;;;10.80;95.20;;;;;;5029542;28;20053;-85
2022/03/14 02:22:26;;;;;;;3.88;2.00;;;10.80;95.40;;;;;;5028560;28;20069;-85
2022/03/14 02:24:51;;;;;;;3.80;2.00;;;10.80;95.20;;;;;;5043758;28;20574;-85
2022/03/14 02:27:19;;;;;;;3.45;1.80;;;10.80;95.70;;;;;;5029706;28;20179;-85
2022/03/14 02:29:45;;;;;;;3.17;1.90;;;10.80;95.90;;;;;;5015774;28;20052;-85
2022/03/14 02:32:12;;;;;;;4.40;2.05;;;10.70;95.90;;;;;;5031069;28;20060;-85
2022/03/14 02:34:39;;;;;;;2.70;1.50;;;10.80;96.50;;;;;;5008078;28;20034;-85
2022/03/14 02:37:04;;;;;;;3.03;1.92;;;10.80;96.70;;;;;;5024994;28;20045;-84
2022/03/14 02:39:32;;;;;;;3.22;1.73;;;10.80;96.30;;;;;;5026776;28;20493;-85
2022/03/14 02:41:59;;;;;;;3.17;1.73;;;10.80;96.70;;;;;;5014065;28;20037;-86
2022/03/14 02:44:25;;;;;;;2.85;1.42;;;10.70;96.90;;;;;;5028869;28;20051;-85
2022/03/14 02:46:50;;;;;;;2.80;1.50;;;10.70;96.60;;;;;;5025597;28;20400;-86
2022/03/14 02:49:16;;;;;;;3.08;1.38;;;10.70;97.30;;;;;;5012427;28;20113;-84
2022/03/14 02:51:43;;;;;;;3.05;1.55;;;10.70;97.30;;;;;;5008821;28;20418;-84
2022/03/14 02:54:10;;;;;;;3.05;1.67;;;10.70;97.60;;;;;;5029267;28;20034;-84
2022/03/14 02:56:38;;;;;;;2.63;1.60;;;10.60;98.00;;;;;;5030211;28;20055;-85
2022/03/14 02:59:06;;;;;;;2.20;1.40;;;10.60;98.00;;;;;;5022346;28;20042;-85
2022/03/14 03:01:32;;;;;;;3.17;1.67;;;10.60;98.40;;;;;;5034510;28;20045;-85
2022/03/14 03:03:58;;;;;;;2.40;1.35;;;10.60;98.60;;;;;;5010517;28;20059;-85
2022/03/14 03:06:23;;;;;;;4.45;1.50;;;10.60;98.70;;;;;;5029477;28;20070;-84
2022/03/14 03:08:50;;;;;;;2.15;1.20;;;10.60;98.90;;;;;;5007022;28;20137;-85
2022/03/14 03:11:16;;;;;;;2.17;1.30;;;10.60;98.90;;;;;;5027438;28;20108;-85
2022/03/14 03:13:43;;;;;;;3.38;1.20;;;10.50;99.10;;;;;;5006563;28;20590;-85
2022/03/14 03:16:09;;;;;;;2.33;1.10;;;10.50;99.30;;;;;;5027959;28;20065;-85
2022/03/14 03:18:35;;;;;;;2.47;1.42;;;10.50;99.70;;;;;;5032893;28;20045;-85
2022/03/14 03:21:02;;;;;;;2.30;1.13;;;10.50;99.80;;;;;;5028534;28;20033;-84
2022/03/14 03:23:28;;;;;;;3.13;1.40;;;10.50;99.90;;;;;;5033347;28;20065;-85
2022/03/14 03:25:54;;;;;;;2.42;1.10;;;10.50;99.90;;;;;;5012994;28;20136;-85
2022/03/14 03:28:19;;;;;;;2.20;1.10;;;10.40;99.90;;;;;;5010232;28;20053;-85
2022/03/14 03:30:45;;;;;;;1.60;0.95;;;10.40;99.90;;;;;;5030954;28;20479;-85
2022/03/14 03:33:11;;;;;;;1.50;0.90;;;10.40;99.90;;;;;;5034665;28;20039;-85
2022/03/14 03:35:36;;;;;;;3.25;1.10;;;10.40;99.90;;;;;;5009829;28;20037;-85
2022/03/14 03:38:02;;;;;;;2.33;1.20;;;10.40;99.90;;;;;;5036462;28;20037;-85
2022/03/14 03:40:27;;;;;;;1.38;0.80;;;10.30;99.90;;;;;;5015094;28;20044;-85
2022/03/14 03:42:53;;;;;;;2.95;0.90;;;10.30;99.90;;;;;;5032140;28;20042;-84
2022/03/14 03:45:19;;;;;;;1.88;0.80;;;10.30;99.90;;;;;;5028108;28;20038;-85
2022/03/14 03:47:44;;;;;;;2.22;0.85;;;10.30;99.90;;;;;;5025575;28;20140;-84
2022/03/14 03:50:10;;;;;;;1.67;0.98;;;10.20;99.90;;;;;;5030911;28;20060;-84
2022/03/14 03:52:36;;;;;;;1.60;0.80;;;10.20;99.90;;;;;;5029636;28;20047;-85
2022/03/14 03:55:03;;;;;;;1.80;1.00;;;10.20;99.90;;;;;;5027975;28;20056;-84
2022/03/14 03:57:30;;;;;;;2.25;1.05;;;10.20;99.90;;;;;;5026356;28;20137;-85
2022/03/14 03:59:56;;;;;;;1.70;0.90;;;10.20;99.90;;;;;;5013656;28;20053;-85
2022/03/14 04:02:22;;;;;;;1.88;1.00;;;10.20;99.90;;;;;;5014823;28;20045;-85
2022/03/14 04:04:49;;;;;;;2.13;0.98;;;10.20;99.90;;;;;;5031782;28;20106;-85
2022/03/14 04:07:18;;;;;;;2.20;1.30;;;10.10;99.90;;;;;;5015733;28;20048;-85
2022/03/14 04:09:46;;;;;;;2.97;1.20;;;10.10;99.90;;;;;;5034938;28;20079;-85
2022/03/14 04:12:12;;;;;;;1.60;0.85;;;10.10;99.90;;;;;;5033979;28;20049;-85
2022/03/14 04:14:38;;;;;;;1.63;0.77;;;10.10;99.90;;;;;;5051417;28;20043;-85
2022/03/14 04:17:04;;;;;;;1.75;0.88;;;10.00;99.90;;;;;;5031976;28;20049;-84
2022/03/14 04:19:30;;;;;;;2.17;0.98;;;10.10;99.90;;;;;;5014607;28;20051;-85
2022/03/14 04:21:56;;;;;;;3.28;1.20;;;10.10;99.90;;;;;;5015143;28;20041;-85
2022/03/14 04:24:22;;;;;;;2.40;1.00;;;10.10;99.90;;;;;;5054941;28;20044;-85
2022/03/14 04:26:49;;;;;;;2.47;1.00;;;10.00;99.90;;;;;;5032581;28;20132;-84
2022/03/14 04:29:15;;;;;;;3.47;1.20;;;10.10;99.90;;;;;;5013299;28;20049;-84
2022/03/14 04:31:41;;;;;;;1.52;1.00;;;10.10;99.90;;;;;;5019542;28;20089;-85
2022/03/14 04:34:07;;;;;;;2.30;1.00;;;10.00;99.90;;;;;;5027568;28;20335;-85
2022/03/14 04:36:33;;;;;;;2.40;1.05;;;10.00;99.90;;;;;;5032594;28;20041;-85
2022/03/14 04:38:59;;;;;;;1.35;0.80;;;10.00;99.90;;;;;;5052515;28;20029;-85
2022/03/14 04:41:25;;;;;;;2.55;1.10;;;10.00;99.90;;;;;;5034652;28;20033;-85
2022/03/14 04:43:50;;;;;;;1.55;0.93;;;10.00;99.90;;;;;;5053897;28;20657;-85
2022/03/14 04:46:16;;;;;;;2.20;1.10;;;10.00;99.90;;;;;;5016217;28;20036;-84
2022/03/14 04:48:42;;;;;;;1.65;1.00;;;10.00;99.90;;;;;;5043445;28;20040;-85
2022/03/14 04:51:08;;;;;;;1.77;0.98;;;10.00;99.90;;;;;;5033351;28;20033;-84
2022/03/14 04:53:35;;;;;;;2.53;1.05;;;10.00;99.90;;;;;;5051934;28;20466;-85
2022/03/14 04:56:01;;;;;;;2.70;1.23;;;10.00;99.90;;;;;;5031915;28;20076;-85
2022/03/14 04:58:27;;;;;;;1.55;0.82;;;10.00;99.90;;;;;;5015537;28;20053;-85
2022/03/14 05:00:54;;;;;;;1.95;1.10;;;10.00;99.90;;;;;;5038049;28;20044;-85
2022/03/14 05:03:21;;;;;;;2.42;1.40;;;10.00;99.90;;;;;;5037119;28;20071;-85
2022/03/14 05:05:46;;;;;;;2.90;1.50;;;10.00;99.90;;;;;;5000247;28;20037;-85
2022/03/14 05:08:12;;;;;;;2.17;1.10;;;10.00;99.90;;;;;;5012231;28;20053;-85
2022/03/14 05:10:37;;;;;;;3.05;1.20;;;10.00;99.90;;;;;;5012680;28;20063;-84
2022/03/14 05:13:04;;;;;;;3.45;1.58;;;10.00;99.90;;;;;;5006791;28;20041;-84
2022/03/14 05:15:33;;;;;;;3.13;1.52;;;10.00;99.90;;;;;;5027891;28;20091;-85
2022/03/14 05:18:00;;;;;;;2.70;1.50;;;10.00;99.90;;;;;;5049149;28;20454;-85
2022/03/14 05:20:26;;;;;;;2.25;1.27;;;9.90;99.90;;;;;;5028990;28;20354;-85
2022/03/14 05:22:53;;;;;;;2.50;1.23;;;9.90;99.90;;;;;;5005982;28;20041;-85
2022/03/14 05:25:23;;;;;;;3.08;1.35;;;9.90;99.90;;;;;;5030389;28;20048;-85
2022/03/14 05:27:49;;;;;;;3.70;1.30;;;9.90;99.90;;;;;;5009446;28;20064;-85
2022/03/14 05:30:15;;;;;;;3.08;1.80;;;9.90;99.90;;;;;;5026226;28;20480;-85
2022/03/14 05:32:42;;;;;;;2.47;1.30;;;9.90;99.90;;;;;;5018002;28;20511;-85
2022/03/14 05:35:11;;;;;;;2.78;1.55;;;9.90;99.90;;;;;;5013442;28;20033;-85
2022/03/14 05:37:38;;;;;;;3.42;1.75;;;9.80;99.90;;;;;;5010420;28;20033;-85
2022/03/14 05:40:06;;;;;;;2.33;1.33;;;9.80;99.90;;;;;;5014205;28;20486;-85
2022/03/14 05:42:32;;;;;;;2.50;1.30;;;9.80;99.90;;;;;;5034022;28;20041;-85
2022/03/14 05:44:58;;;;;;;2.75;1.60;;;9.80;99.90;;;;;;5028665;28;20048;-85
2022/03/14 05:47:24;;;;;;;3.53;2.17;;;9.80;99.90;;;;;;5016745;28;20061;-85
2022/03/14 05:49:52;;;;;;;3.78;2.05;;;9.80;99.90;;;;;;5010780;28;20406;-85
2022/03/14 05:52:19;;;;;;;5.22;1.90;;;9.80;99.90;;;;;;5028355;28;20056;-85
2022/03/14 05:54:45;;;;;;;3.13;1.77;;;9.80;99.90;;;;;;5027252;28;20530;-84
2022/03/14 05:57:14;;;;;;;3.00;1.80;;;9.80;99.90;;;;;;5035269;28;20120;-85
2022/03/14 05:59:40;;;;;;;2.90;1.65;;;9.80;99.90;;;;;;5030787;28;20040;-85
2022/03/14 06:02:05;;;;;;;3.63;2.05;;;9.80;99.90;;;;;;5029707;28;20580;-85
2022/03/14 06:04:31;;;;;;;3.38;1.95;;;9.90;99.90;;;;;;5040099;28;20143;-85
2022/03/14 06:06:57;;;;;;;3.38;1.95;;;9.80;99.90;;;;;;5024798;28;20048;-84
2022/03/14 06:09:26;;;;;;;3.22;2.05;;;9.80;99.90;;;;;;5029779;28;20128;-85
2022/03/14 06:11:52;;;;;;;4.20;1.70;;;9.80;99.90;;;;;;5009848;28;20041;-85
2022/03/14 06:14:18;;;;;;;3.72;2.20;;;9.80;99.90;;;;;;5009766;28;20052;-85
2022/03/14 06:16:43;;;;;;;3.17;1.75;;;9.80;99.90;;;;;;5010278;28;20076;-85
2022/03/14 06:19:09;;;;;;;3.83;2.22;;;9.80;99.90;;;;;;5028142;28;20064;-85
2022/03/14 06:21:35;;;;;;;3.85;2.03;;;9.90;99.90;;;;;;5013030;28;20028;-85
2022/03/14 06:24:04;;;;;;;2.80;1.80;;;9.80;99.90;;;;;;5028957;28;20042;-85
2022/03/14 06:26:30;;;;;;;7.15;2.30;;;9.80;99.90;;;;;;5026629;28;20029;-85
2022/03/14 06:28:56;;;;;;;4.15;2.30;;;9.80;99.90;;;;;;5025903;28;20071;-85
2022/03/14 06:31:21;;;;;;;3.88;2.53;;;9.80;99.90;;;;;;5029897;28;20462;-86
2022/03/14 06:33:49;;;;;;;3.60;2.25;;;9.80;99.90;;;;;;5010717;28;20037;-85
2022/03/14 06:36:15;;;;;;;4.00;2.28;;;9.80;99.90;;;;;;5007638;28;20120;-85
2022/03/14 06:38:40;;;;;;;5.72;2.33;;;9.80;99.90;;;;;;5009946;28;20224;-85
2022/03/14 06:41:07;;;;;;;5.22;2.83;;;9.70;99.90;;;;;;5007739;28;20045;-85
2022/03/14 06:43:33;;;;;;;5.13;3.10;;;9.80;99.90;;;;;;5011028;28;20051;-85
2022/03/14 06:45:58;;;;;;;6.93;4.18;;;9.70;99.90;;;;;;5015363;28;20037;-84
2022/03/14 06:48:24;;;;;;;7.97;4.80;;;9.70;99.90;;;;;;5032100;28;20041;-85
2022/03/14 06:50:50;;;;;;;7.45;5.20;;;9.70;99.90;;;;;;5026168;28;20178;-84
2022/03/14 06:53:18;;;;;;;7.90;4.85;;;9.80;99.90;;;;;;5031209;28;20045;-85
2022/03/14 06:55:47;;;;;;;6.78;4.20;;;9.80;99.90;;;;;;5032703;28;20072;-84
2022/03/14 06:58:13;;;;;;;8.18;5.10;;;9.80;99.90;;;;;;5010419;28;20132;-85
2022/03/14 07:00:39;;;;;;;7.85;4.97;;;9.80;99.90;;;;;;5033948;28;20113;-84
2022/03/14 07:03:05;;;;;;;7.70;5.40;;;9.80;99.90;;;;;;5014898;28;20053;-85
2022/03/14 07:05:30;;;;;;;6.80;4.78;;;9.70;99.90;;;;;;5045695;28;20386;-84
2022/03/14 07:07:56;;;;;;;7.85;4.53;;;9.70;99.90;;;;;;5027135;28;20038;-85
2022/03/14 07:10:22;;;;;;;7.15;4.85;;;9.80;99.90;;;;;;5035189;28;20045;-85
2022/03/14 07:12:49;;;;;;;6.85;4.78;;;9.70;99.90;;;;;;5030951;28;20095;-84
2022/03/14 07:15:23;;;;;;;6.80;4.30;;;9.70;99.90;;;;;;5031035;28;20042;-83
2022/03/14 07:17:49;;;;;;;6.47;4.32;;;9.80;99.90;;;;;;5034603;28;20033;-83
2022/03/14 07:20:19;;;;;;;8.68;4.43;;;9.70;99.90;;;;;;5022259;28;20061;-84
2022/03/14 07:22:50;;;;;;;6.78;3.97;;;9.80;99.90;;;;;;5035853;28;20045;-83
2022/03/14 07:25:20;;;;;;;6.28;3.70;;;9.80;99.90;;;;;;5031805;28;20421;-83
2022/03/14 07:27:46;;;;;;;7.40;4.03;;;9.80;99.90;;;;;;5028080;28;20052;-83
2022/03/14 07:30:14;;;;;;;6.63;4.28;;;9.80;99.90;;;;;;5008974;28;20045;-83
2022/03/14 07:32:39;;;;;;;6.25;3.83;;;9.80;99.90;;;;;;5024259;28;20053;-83
2022/03/14 07:35:05;;;;;;;5.75;4.03;;;9.80;99.90;;;;;;5034275;28;20026;-83
2022/03/14 07:37:31;;;;;;;6.45;4.22;;;9.80;99.90;;;;;;5035465;28;20029;-83
2022/03/14 07:39:57;;;;;;;6.60;3.97;;;9.70;99.90;;;;;;5010610;28;20492;-83
2022/03/14 07:42:22;;;;;;;6.10;4.35;;;9.70;99.90;;;;;;5028998;28;20427;-83
2022/03/14 07:44:48;;;;;;;7.00;5.00;;;9.70;99.90;;;;;;5020755;28;20053;-83
2022/03/14 07:47:14;;;;;;;6.63;4.68;;;9.60;99.90;;;;;;5029276;28;20571;-83
2022/03/14 07:49:39;;;;;;;9.25;6.40;;;9.60;99.90;;;;;;5033959;28;20193;-83
2022/03/14 07:52:06;;;;;;;9.10;6.10;;;9.60;99.90;;;;;;5033204;28;20159;-83
2022/03/14 07:54:32;;;;;;;9.60;6.60;;;9.50;99.90;;;;;;5031836;28;20038;-83
2022/03/14 07:56:59;;;;;;;9.35;6.30;;;9.50;99.90;;;;;;5039528;28;20048;-83
2022/03/14 07:59:24;;;;;;;10.07;6.78;;;9.50;99.90;;;;;;5033106;28;20393;-83
2022/03/14 08:01:50;;;;;;;9.25;6.18;;;9.40;99.90;;;;;;5032578;28;20053;-83
2022/03/14 08:04:15;;;;;;;11.82;7.90;;;9.40;99.90;;;;;;5022385;28;20394;-83
2022/03/14 08:06:42;;;;;;;12.05;8.20;;;9.40;99.90;;;;;;5037758;28;20482;-83
2022/03/14 08:09:11;;;;;;;11.98;8.20;;;9.40;99.90;;;;;;5030701;28;20417;-83
2022/03/14 08:11:38;;;;;;;13.55;8.90;;;9.30;99.90;;;;;;5031984;28;20079;-83
2022/03/14 08:14:05;;;;;;;14.48;9.52;;;9.30;99.90;;;;;;5031100;28;20080;-82
2022/03/14 08:16:31;;;;;;;16.10;8.75;;;9.30;99.90;;;;;;5038239;28;20132;-83
2022/03/14 08:18:56;;;;;;;15.75;9.45;;;9.20;99.90;;;;;;5032078;28;20120;-83
2022/03/14 08:21:23;;;;;;;14.50;8.95;;;9.10;99.90;;;;;;5035837;28;20794;-82
2022/03/14 08:23:50;;;;;;;13.55;8.13;;;9.10;99.90;;;;;;5030777;28;20045;-83
2022/03/14 08:26:17;;;;;;;11.98;7.22;;;9.00;99.90;;;;;;5015251;28;20041;-83
2022/03/14 08:28:44;;;;;;;16.25;7.88;;;9.00;99.90;;;;;;5035112;28;20504;-83
2022/03/14 08:31:10;;;;;;;17.25;8.45;;;8.90;99.90;;;;;;5011915;28;20045;-83
2022/03/14 08:33:40;;;;;;;12.15;7.45;;;8.80;99.90;;;;;;5034140;28;20025;-82
2022/03/14 08:36:06;;;;;;;13.80;8.05;;;8.80;99.90;;;;;;5019137;28;20056;-83
2022/03/14 08:38:32;;;;;;;15.70;7.47;;;8.80;99.90;;;;;;5027790;28;20685;-82
2022/03/14 08:40:58;;;;;;;15.35;8.80;;;8.70;99.90;;;;;;5034637;28;20045;-82
2022/03/14 08:43:24;;;;;;;17.73;7.80;;;8.80;99.90;;;;;;5032277;28;20693;-83
2022/03/14 08:45:50;;;;;;;15.70;8.27;;;8.70;99.90;;;;;;5038378;28;20080;-82
2022/03/14 08:48:16;;;;;;;15.50;8.23;;;8.70;99.90;;;;;;5033565;28;20052;-83
2022/03/14 08:50:42;;;;;;;14.82;7.30;;;8.80;99.90;;;;;;5030404;28;20042;-83
2022/03/14 08:53:08;;;;;;;12.82;5.80;;;8.70;99.90;;;;;;5037731;28;20069;-83
2022/03/14 08:55:34;;;;;;;16.33;6.53;;;8.80;99.90;;;;;;5031200;28;20038;-83
2022/03/14 08:58:05;;;;;;;13.73;6.05;;;8.80;99.90;;;;;;5035179;28;20066;-83
2022/03/14 09:00:31;;;;;;;13.77;5.32;;;8.80;99.90;;;;;;5029569;28;20044;-83
2022/03/14 09:02:57;;;;;;;12.23;4.78;;;8.90;99.90;;;;;;5017413;28;20362;-83
2022/03/14 09:05:22;;;;;;;10.73;4.70;;;8.90;99.90;;;;;;5034239;28;20052;-83
2022/03/14 09:07:49;;;;;;;9.38;3.92;;;8.90;99.90;;;;;;5036435;28;20124;-83
2022/03/14 09:10:17;;;;;;;8.68;4.05;;;9.00;99.90;;;;;;5030755;28;20037;-83
2022/03/14 09:12:43;;;;;;;8.88;4.70;;;9.00;99.90;;;;;;5036664;28;20777;-84
2022/03/14 09:15:10;;;;;;;9.27;3.40;;;9.10;99.90;;;;;;5029374;28;20109;-83
2022/03/14 09:17:49;;;;;;;9.88;3.58;;;9.10;99.90;;;;;;5028227;28;20462;-83
2022/03/14 09:20:15;;;;;;;11.60;3.58;;;9.20;99.90;;;;;;5032197;28;20494;-83
2022/03/14 09:22:44;;;;;;;7.45;2.92;;;9.30;99.90;;;;;;5031347;28;20037;-83
2022/03/14 09:25:11;;;;;;;8.85;2.42;;;9.30;99.90;;;;;;5031063;28;20041;-83
2022/03/14 09:27:37;;;;;;;9.90;2.30;;;9.40;99.90;;;;;;5028717;28;20045;-83
2022/03/14 09:30:04;;;;;;;7.93;2.17;;;9.40;99.90;;;;;;5031331;28;20045;-83
2022/03/14 09:32:30;;;;;;;6.50;1.65;;;9.40;99.90;;;;;;5028913;28;20791;-83
2022/03/14 09:34:59;;;;;;;9.13;2.45;;;9.50;99.90;;;;;;5002293;28;20124;-82
2022/03/14 09:37:29;;;;;;;6.70;1.77;;;9.40;99.90;;;;;;5029816;28;20513;-82
2022/03/14 09:39:55;;;;;;;6.50;2.10;;;9.50;99.90;;;;;;5031284;28;20075;-83
2022/03/14 09:42:23;;;;;;;6.32;1.90;;;9.50;99.90;;;;;;5029318;28;20053;-83
2022/03/14 09:44:53;;;;;;;6.82;1.63;;;9.40;99.90;;;;;;5010281;28;20045;-83
2022/03/14 09:47:21;;;;;;;12.05;2.55;;;9.40;99.90;;;;;;5028672;28;20160;-83
2022/03/14 09:49:48;;;;;;;10.57;2.63;;;9.40;99.90;;;;;;5030235;28;20457;-83
2022/03/14 09:52:15;;;;;;;6.35;2.58;;;9.40;99.90;;;;;;5014445;28;20040;-83
2022/03/14 09:54:41;;;;;;;9.82;2.40;;;9.40;99.90;;;;;;5011317;28;20048;-83
2022/03/14 09:57:07;;;;;;;7.43;1.90;;;9.40;99.90;;;;;;5013859;28;20034;-83
2022/03/14 09:59:35;;;;;;;7.95;2.05;;;9.50;99.90;;;;;;5031773;28;20069;-83
2022/03/14 10:02:01;;;;;;;8.02;2.08;;;9.50;99.90;;;;;;5027189;28;20041;-83
2022/03/14 10:04:27;;;;;;;7.43;1.88;;;9.50;99.90;;;;;;5028782;28;20103;-83
2022/03/14 10:06:52;;;;;;;7.00;1.90;;;9.70;99.90;;;;;;5043168;28;20045;-83
2022/03/14 10:09:18;;;;;;;12.18;2.25;;;9.70;99.90;;;;;;5033408;28;20145;-82
2022/03/14 10:11:44;;;;;;;7.75;2.13;;;9.80;99.90;;;;;;4997681;28;20116;-83
2022/03/14 10:14:17;;;;;;;9.07;2.22;;;9.90;99.90;;;;;;5026754;28;20037;-83
2022/03/14 10:16:44;;;;;;;;;;;9.90;99.90;;;;;;5012322;28;20118;-83
2022/03/14 10:19:10;;;;;;;4.80;1.77;;;10.00;99.90;;;;;;5028627;28;19963;-82
2022/03/14 10:21:38;;;;;;;6.85;2.38;;;10.10;99.90;;;;;;5028574;28;21876;-83
2022/03/14 10:24:10;;;;;;;7.28;2.00;;;10.10;99.90;;;;;;5026760;28;20079;-84
2022/03/14 10:26:41;;;;;;;10.57;2.05;;;10.20;99.90;;;;;;5029896;28;20415;-83
2022/03/14 10:29:12;;;;;;;6.93;2.05;;;10.30;99.90;;;;;;5028338;28;20124;-83
2022/03/14 10:31:45;;;;;;;7.32;2.20;;;10.30;99.90;;;;;;5032442;28;20616;-83
2022/03/14 10:34:16;;;;;;;9.05;1.85;;;10.40;99.90;;;;;;5029705;28;20042;-83
2022/03/14 10:36:54;;;;;;;9.23;1.67;;;10.40;99.90;;;;;;5018229;28;20120;-83
2022/03/14 10:39:31;;;;;;;4.35;1.73;;;10.50;99.90;;;;;;5024784;28;20052;-83
2022/03/14 10:42:08;;;;;;;7.47;2.15;;;10.50;99.90;;;;;;5003617;28;20042;-83
2022/03/14 10:44:36;;;;;;;8.20;1.73;;;10.50;99.90;;;;;;5026653;28;20057;-83
2022/03/14 10:47:04;;;;;;;6.13;1.95;;;10.60;99.90;;;;;;5028215;28;20456;-83
2022/03/14 10:49:33;;;;;;;9.45;2.78;;;10.60;99.90;;;;;;5012116;28;20042;-82
2022/03/14 10:52:01;;;;;;;6.35;2.42;;;10.50;99.90;;;;;;5030898;28;20033;-83
2022/03/14 10:54:27;;;;;;;7.65;3.28;;;10.60;99.90;;;;;;5028426;28;20129;-82
2022/03/14 10:57:09;;;;;;;10.50;3.33;;;10.60;99.90;;;;;;5035525;28;20460;-83
2022/03/14 10:59:37;;;;;;;7.17;3.03;;;10.60;99.90;;;;;;5031404;28;20049;-83
2022/03/14 11:02:06;;;;;;;11.32;4.28;;;10.70;99.90;;;;;;5030681;28;20300;-83
2022/03/14 11:04:40;;;;;;;9.00;4.20;;;10.70;99.90;;;;;;5013202;28;20060;-83
2022/03/14 11:07:06;;;;;;;10.27;3.97;;;10.70;99.90;;;;;;5027963;28;20152;-83
2022/03/14 11:09:46;;;;;;;9.73;5.50;;;10.80;99.90;;;;;;5033314;28;20128;-83
2022/03/14 11:12:15;;;;;;;11.05;4.85;;;10.80;99.90;;;;;;5031052;28;20049;-82
2022/03/14 11:14:42;;;;;;;10.13;5.57;;;10.80;99.90;;;;;;5030690;28;20175;-83
2022/03/14 11:17:25;;;;;;;11.27;5.97;;;10.90;99.90;;;;;;5025931;28;20044;-82
2022/03/14 11:19:52;;;;;;;9.30;5.85;;;10.90;99.90;;;;;;5037895;28;20076;-82
2022/03/14 11:22:19;;;;;;;10.05;6.20;;;10.90;99.90;;;;;;5030562;28;20585;-82
2022/03/14 11:24:56;;;;;;;10.75;6.05;;;11.00;99.90;;;;;;5025266;28;20133;-82
2022/03/14 11:27:24;;;;;;;15.52;7.10;;;11.10;99.90;;;;;;5030593;28;20045;-82
2022/03/14 11:30:19;;;;;;;10.07;6.93;;;11.10;99.90;;;;;;5035185;28;20052;-82
2022/03/14 11:32:45;;;;;;;13.02;7.03;;;11.20;99.90;;;;;;5030335;28;20046;-82
2022/03/14 11:35:11;;;;;;;16.42;7.38;;;11.20;99.90;;;;;;5014101;28;20581;-82
2022/03/14 11:37:37;;;;;;;13.68;7.47;;;11.30;99.90;;;;;;5027382;28;20355;-82
2022/03/14 11:40:09;;;;;;;14.15;8.00;;;11.30;99.90;;;;;;5016602;28;20198;-82
2022/03/14 11:42:35;;;;;;;11.65;7.80;;;11.40;99.90;;;;;;5014565;28;20136;-82
2022/03/14 11:45:03;;;;;;;14.40;8.65;;;11.60;99.90;;;;;;5034041;28;20057;-82
2022/03/14 11:47:29;;;;;;;15.27;9.50;;;11.60;99.90;;;;;;5032698;28;20038;-82
2022/03/14 11:49:55;;;;;;;14.45;8.55;;;11.70;99.90;;;;;;5031684;28;20125;-82
2022/03/14 11:52:25;;;;;;;16.98;8.25;;;11.80;99.90;;;;;;5037376;28;20112;-83
2022/03/14 11:54:53;;;;;;;17.02;8.93;;;11.90;99.90;;;;;;5023506;28;20170;-83
2022/03/14 11:57:39;;;;;;;14.68;8.85;;;12.10;99.90;;;;;;5033413;28;20085;-82
2022/03/14 12:00:33;;;;;;;14.80;8.15;;;12.30;99.90;;;;;;5032719;28;20504;-82
2022/03/14 12:03:07;;;;;;;13.40;8.07;;;12.40;99.90;;;;;;5028644;28;20056;-83
2022/03/14 12:05:33;;;;;;;15.50;8.40;;;12.40;99.90;;;;;;5019517;28;20071;-83
2022/03/14 12:07:59;;;;;;;14.80;9.05;;;12.40;99.90;;;;;;5037418;28;20788;-83
2022/03/14 12:10:33;;;;;;;17.45;8.75;;;12.40;99.90;;;;;;5034536;28;20052;-83
2022/03/14 12:12:59;;;;;;;12.00;8.20;;;12.50;99.90;;;;;;5031509;28;20433;-83
2022/03/14 12:15:43;;;;;;;12.23;8.15;;;12.40;99.90;;;;;;5033212;28;20495;-82
2022/03/14 12:18:26;;;;;;;14.38;7.85;;;12.60;99.90;;;;;;5033043;28;20535;-83
2022/03/14 12:20:59;;;;;;;15.27;8.27;;;12.60;99.90;;;;;;5036046;28;20151;-82
2022/03/14 12:23:30;;;;;;;14.60;8.57;;;12.70;99.90;;;;;;5031663;28;20454;-83
2022/03/14 12:25:58;;;;;;;15.15;6.68;;;12.70;99.90;;;;;;5013317;28;20045;-82
2022/03/14 12:28:36;;;;;;;16.35;6.80;;;12.90;99.90;;;;;;5029474;28;20409;-82
2022/03/14 12:31:04;;;;;;;12.70;6.78;;;13.10;99.90;;;;;;5028983;28;20048;-83
2022/03/14 12:33:44;;;;;;;12.88;6.28;;;13.30;99.90;;;;;;5012631;28;20045;-83
2022/03/14 12:36:22;;;;;;;14.77;7.60;;;13.60;99.10;;;;;;5031785;28;20041;-83
2022/03/14 12:39:06;;;;;;;18.98;7.80;;;13.60;97.80;;;;;;5035947;28;20117;-83
2022/03/14 12:41:40;;;;;;;11.93;6.40;;;13.70;98.10;;;;;;5036123;28;20474;-83
2022/03/14 12:44:23;;;;;;;10.93;6.90;;;13.90;97.40;;;;;;5027105;28;20083;-82
2022/03/14 12:46:51;;;;;;;15.45;7.05;;;13.90;95.50;;;;;;5027298;28;20049;-82
2022/03/14 12:49:49;;;;;;;13.18;7.40;;;14.00;95.00;;;;;;5033305;28;20041;-83